Time;durP1;ratioP1;P1;durP2;ratioP2;P2;SDS_P1;SDS_P2;PMS_P1;PMS_P2;Temp;Humidity;BMP_temperature;BMP_pressure;BME280_temperature;BME280_humidity;BME280_pressure;Samples;Min_cycle;Max_cycle;Signal;HPM_P1;HPM_P2
2023/07/25 00:00:09;;;;;;;;;;;;;;;15.68;100.00;95608.63;5103207;28;20156;-69
2023/07/25 00:02:35;;;;;;;;;;;;;;;15.66;100.00;95603.59;5065867;28;19948;-70
2023/07/25 00:05:02;;;;;;;;;;;;;;;15.67;100.00;95607.84;5066298;28;19942;-69
2023/07/25 00:07:28;;;;;;;;;;;;;;;15.66;100.00;95587.75;5082604;28;20249;-69
2023/07/25 00:09:54;;;;;;;;;;;;;;;15.66;100.00;95598.31;5082921;28;19938;-69
2023/07/25 00:12:20;;;;;;;;;;;;;;;15.67;100.00;95596.47;5083094;28;19996;-69
2023/07/25 00:14:45;;;;;;;;;;;;;;;15.65;100.00;95588.81;5065683;28;19940;-70
2023/07/25 00:17:11;;;;;;;;;;;;;;;15.62;100.00;95578.78;5082832;28;19935;-70
2023/07/25 00:19:37;;;;;;;;;;;;;;;15.61;100.00;95580.63;5065437;28;19963;-69
2023/07/25 00:22:03;;;;;;;;;;;;;;;15.60;100.00;95573.78;5066279;28;19942;-70
2023/07/25 00:24:29;;;;;;;;;;;;;;;15.59;100.00;95563.47;5065462;28;19968;-69
2023/07/25 00:26:55;;;;;;;;;;;;;;;15.59;100.00;95560.84;5066243;28;20174;-69
2023/07/25 00:29:21;;;;;;;;;;;;;;;15.58;100.00;95556.59;5082195;28;19935;-69
2023/07/25 00:31:46;;;;;;;;;;;;;;;15.59;100.00;95555.53;5082804;28;20234;-69
2023/07/25 00:34:16;;;;;;;;;;;;;;;15.57;100.00;95542.59;5092987;28;19943;-86
2023/07/25 00:36:42;;;;;;;;;;;;;;;15.56;100.00;95546.31;5103104;28;19936;-71
2023/07/25 00:39:08;;;;;;;;;;;;;;;15.57;100.00;95539.94;5104720;28;20098;-71
2023/07/25 00:41:34;;;;;;;;;;;;;;;15.58;100.00;95548.66;5103547;28;19948;-71
2023/07/25 00:43:59;;;;;;;;;;;;;;;15.58;100.00;95538.09;5104615;28;19934;-71
2023/07/25 00:46:25;;;;;;;;;;;;;;;15.56;100.00;95537.56;5103971;28;19933;-71
2023/07/25 00:48:51;;;;;;;;;;;;;;;15.56;100.00;95540.22;5102890;28;20217;-71
2023/07/25 00:51:17;;;;;;;;;;;;;;;15.53;100.00;95532.84;5104202;28;19959;-70
2023/07/25 00:53:43;;;;;;;;;;;;;;;15.51;100.00;95534.97;5102820;28;19930;-79
2023/07/25 00:56:09;;;;;;;;;;;;;;;15.49;100.00;95521.22;5104068;28;20012;-71
2023/07/25 00:58:35;;;;;;;;;;;;;;;15.45;100.00;95518.34;5105449;28;19955;-71
2023/07/25 01:01:02;;;;;;;;;;;;;;;15.42;100.00;95519.69;5107782;28;20165;-71
2023/07/25 01:03:28;;;;;;;;;;;;;;;15.41;100.00;95518.09;5107722;28;19935;-70
2023/07/25 01:05:55;;;;;;;;;;;;;;;15.40;100.00;95521.00;5108501;28;19986;-70
2023/07/25 01:08:21;;;;;;;;;;;;;;;15.41;100.00;95520.75;5107617;28;19934;-70
2023/07/25 01:10:47;;;;;;;;;;;;;;;15.42;100.00;95513.59;5108407;28;19945;-70
2023/07/25 01:13:12;;;;;;;;;;;;;;;15.43;100.00;95517.81;5107294;28;19947;-79
2023/07/25 01:15:39;;;;;;;;;;;;;;;15.42;100.00;95511.75;5107503;28;19941;-69
2023/07/25 01:18:05;;;;;;;;;;;;;;;15.43;100.00;95518.63;5107618;28;19960;-69
2023/07/25 01:20:33;;;;;;;;;;;;;;;15.42;100.00;95527.59;5108261;28;20113;-70
2023/07/25 01:23:00;;;;;;;;;;;;;;;15.42;100.00;95524.19;5106094;28;19953;-69
2023/07/25 01:25:28;;;;;;;;;;;;;;;15.41;100.00;95526.03;5106916;28;20338;-70
2023/07/25 01:27:53;;;;;;;;;;;;;;;15.41;100.00;95519.94;5107786;28;19941;-69
2023/07/25 01:30:19;;;;;;;;;;;;;;;15.39;100.00;95514.94;5107450;28;19960;-69
2023/07/25 01:32:45;;;;;;;;;;;;;;;15.36;100.00;95504.91;5106119;28;20224;-79
2023/07/25 01:35:11;;;;;;;;;;;;;;;15.35;100.00;95490.13;5107093;28;19948;-80
2023/07/25 01:37:37;;;;;;;;;;;;;;;15.34;100.00;95488.53;5107079;28;19935;-79
2023/07/25 01:40:03;;;;;;;;;;;;;;;15.34;100.00;95500.97;5107756;28;19949;-79
2023/07/25 01:42:29;;;;;;;;;;;;;;;15.31;100.00;95488.31;5106967;28;20003;-79
2023/07/25 01:44:54;;;;;;;;;;;;;;;15.31;100.00;95485.66;5105857;28;19936;-79
2023/07/25 01:47:25;;;;;;;;;;;;;;;15.31;100.00;95480.38;5105765;28;19941;-71
2023/07/25 01:49:54;;;;;;;;;;;;;;;15.30;100.00;95476.16;5105756;28;19948;-88
2023/07/25 01:52:40;;;;;;;;;;;;;;;15.30;100.00;95473.50;5107309;28;20238;-89
2023/07/25 01:55:06;;;;;;;;;;;;;;;15.27;100.00;95471.41;5068714;28;19944;-89
2023/07/25 01:57:32;;;;;;;;;;;;;;;15.26;100.00;95469.81;5051252;28;19956;-89
2023/07/25 01:59:58;;;;;;;;;;;;;;;15.25;100.00;95473.53;5068091;28;19961;-89
2023/07/25 02:02:23;;;;;;;;;;;;;;;15.25;100.00;95468.25;5051221;28;20009;-89
2023/07/25 02:04:49;;;;;;;;;;;;;;;15.23;100.00;95460.59;5084925;28;19940;-88
2023/07/25 02:07:15;;;;;;;;;;;;;;;15.20;100.00;95443.44;5068113;28;19937;-70
2023/07/25 02:09:42;;;;;;;;;;;;;;;15.21;100.00;95452.16;5035027;28;19960;-85
2023/07/25 02:12:08;;;;;;;;;;;;;;;15.19;100.00;95446.34;5067568;28;19943;-85
2023/07/25 02:14:34;;;;;;;;;;;;;;;15.17;100.00;95451.91;5084431;28;20150;-85
2023/07/25 02:17:00;;;;;;;;;;;;;;;15.15;100.00;95443.47;5067685;28;20256;-85
2023/07/25 02:19:26;;;;;;;;;;;;;;;15.16;100.00;95441.59;5067470;28;20295;-86
2023/07/25 02:21:51;;;;;;;;;;;;;;;15.15;100.00;95430.25;5051547;28;19954;-85
2023/07/25 02:24:17;;;;;;;;;;;;;;;15.15;100.00;95427.63;5067481;28;19940;-71
2023/07/25 02:26:45;;;;;;;;;;;;;;;15.15;100.00;95427.63;5101084;28;19940;-84
2023/07/25 02:29:11;;;;;;;;;;;;;;;15.15;100.00;95424.19;5104947;28;19945;-79
2023/07/25 02:31:37;;;;;;;;;;;;;;;15.15;100.00;95413.63;5106867;28;20142;-79
2023/07/25 02:34:02;;;;;;;;;;;;;;;15.13;100.00;95407.84;5104856;28;20276;-79
2023/07/25 02:36:28;;;;;;;;;;;;;;;15.11;100.00;95397.53;5106458;28;19960;-79
2023/07/25 02:38:54;;;;;;;;;;;;;;;15.10;100.00;95397.78;5106682;28;20136;-78
2023/07/25 02:41:20;;;;;;;;;;;;;;;15.09;100.00;95404.94;5106101;28;19935;-78
2023/07/25 02:43:46;;;;;;;;;;;;;;;15.09;100.00;95412.06;5106624;28;20232;-78
2023/07/25 02:46:11;;;;;;;;;;;;;;;15.06;100.00;95421.34;5106308;28;19944;-71
2023/07/25 02:48:37;;;;;;;;;;;;;;;15.05;100.00;95416.31;5105704;28;19937;-71
2023/07/25 02:51:03;;;;;;;;;;;;;;;15.04;100.00;95404.97;5105149;28;19934;-71
2023/07/25 02:53:29;;;;;;;;;;;;;;;15.02;100.00;95404.44;5106411;28;20145;-71
2023/07/25 02:55:55;;;;;;;;;;;;;;;15.00;100.00;95404.72;5106069;28;19954;-71
2023/07/25 02:58:21;;;;;;;;;;;;;;;14.98;100.00;95404.19;5105533;28;19976;-71
2023/07/25 03:00:48;;;;;;;;;;;;;;;14.98;100.00;95401.56;5106244;28;19957;-85
2023/07/25 03:03:14;;;;;;;;;;;;;;;14.97;100.00;95393.91;5105377;28;20244;-77
2023/07/25 03:05:39;;;;;;;;;;;;;;;14.93;100.00;95388.41;5105950;28;19987;-69
2023/07/25 03:08:05;;;;;;;;;;;;;;;14.91;100.00;95379.97;5105033;28;19950;-69
2023/07/25 03:10:31;;;;;;;;;;;;;;;14.90;100.00;95369.66;5087207;28;19955;-69
2023/07/25 03:12:58;;;;;;;;;;;;;;;14.89;100.00;95370.69;5104733;28;19946;-69
2023/07/25 03:15:23;;;;;;;;;;;;;;;14.85;100.00;95367.84;5105220;28;19938;-69
2023/07/25 03:17:49;;;;;;;;;;;;;;;14.81;100.00;95374.72;5104975;28;19969;-69
2023/07/25 03:20:15;;;;;;;;;;;;;;;14.80;100.00;95378.41;5104420;28;19963;-71
2023/07/25 03:22:41;;;;;;;;;;;;;;;14.78;100.00;95391.06;5103722;28;20103;-77
2023/07/25 03:25:08;;;;;;;;;;;;;;;14.75;100.00;95389.78;5105067;28;19937;-77
2023/07/25 03:27:33;;;;;;;;;;;;;;;14.74;100.00;95393.47;5104624;28;19938;-77
2023/07/25 03:29:59;;;;;;;;;;;;;;;14.73;100.00;95401.66;5104985;28;19977;-77
2023/07/25 03:32:25;;;;;;;;;;;;;;;14.73;100.00;95406.94;5103814;28;19996;-78
2023/07/25 03:34:51;;;;;;;;;;;;;;;14.71;100.00;95409.84;5104952;28;20248;-77
2023/07/25 03:37:17;;;;;;;;;;;;;;;14.72;100.00;95405.34;5105626;28;19935;-70
2023/07/25 03:39:43;;;;;;;;;;;;;;;14.71;100.00;95396.66;5104744;28;20059;-70
2023/07/25 03:42:08;;;;;;;;;;;;;;;14.70;100.00;95400.34;5104483;28;19954;-69
2023/07/25 03:44:34;;;;;;;;;;;;;;;14.71;100.00;95409.84;5105276;28;19938;-69
2023/07/25 03:47:00;;;;;;;;;;;;;;;14.71;100.00;95416.97;5104707;28;19943;-69
2023/07/25 03:49:26;;;;;;;;;;;;;;;14.70;100.00;95418.84;5104695;28;20226;-70
2023/07/25 03:51:52;;;;;;;;;;;;;;;14.70;100.00;95423.28;5103557;28;19941;-69
2023/07/25 03:54:18;;;;;;;;;;;;;;;14.70;100.00;95432.03;5104559;28;20133;-69
2023/07/25 03:56:44;;;;;;;;;;;;;;;14.73;100.00;95417.50;5104145;28;20227;-69
2023/07/25 03:59:10;;;;;;;;;;;;;;;14.73;100.00;95428.84;5103273;28;20007;-70
2023/07/25 04:01:36;;;;;;;;;;;;;;;14.77;100.00;95424.59;5103444;28;19953;-69
2023/07/25 04:04:02;;;;;;;;;;;;;;;14.81;100.00;95419.59;5104064;28;19940;-69
2023/07/25 04:06:27;;;;;;;;;;;;;;;14.84;100.00;95413.75;5105014;28;19938;-70
2023/07/25 04:08:53;;;;;;;;;;;;;;;14.86;100.00;95406.34;5105250;28;19980;-69
2023/07/25 04:11:19;;;;;;;;;;;;;;;14.88;100.00;95400.81;5104332;28;19970;-69
2023/07/25 04:13:45;;;;;;;;;;;;;;;14.90;100.00;95401.34;5104944;28;20016;-69
2023/07/25 04:16:11;;;;;;;;;;;;;;;14.93;100.00;95406.06;5104359;28;19977;-71
2023/07/25 04:18:37;;;;;;;;;;;;;;;14.95;100.00;95406.56;5104604;28;20354;-69
2023/07/25 04:21:03;;;;;;;;;;;;;;;14.96;100.00;95418.72;5103152;28;19964;-69
2023/07/25 04:23:28;;;;;;;;;;;;;;;14.98;100.00;95417.41;5103982;28;20117;-69
2023/07/25 04:25:54;;;;;;;;;;;;;;;14.99;100.00;95423.47;5103462;28;19934;-69
2023/07/25 04:28:20;;;;;;;;;;;;;;;15.00;100.00;95422.41;5104283;28;19997;-69
2023/07/25 04:30:46;;;;;;;;;;;;;;;15.01;100.00;95427.44;5105064;28;20202;-69
2023/07/25 04:33:12;;;;;;;;;;;;;;;14.99;100.00;95426.91;5106598;28;19937;-70
2023/07/25 04:35:38;;;;;;;;;;;;;;;14.97;100.00;95425.56;5090328;28;19945;-70
2023/07/25 04:38:03;;;;;;;;;;;;;;;14.97;100.00;95433.50;5107999;28;19936;-69
2023/07/25 04:40:29;;;;;;;;;;;;;;;14.94;100.00;95439.34;5106983;28;20145;-69
2023/07/25 04:42:55;;;;;;;;;;;;;;;14.90;100.00;95439.06;5090171;28;19943;-70
2023/07/25 04:45:21;;;;;;;;;;;;;;;14.89;100.00;95439.34;5108091;28;19934;-70
2023/07/25 04:47:47;;;;;;;;;;;;;;;14.87;100.00;95447.53;5107564;28;19987;-71
2023/07/25 04:50:12;;;;;;;;;;;;;;;14.88;100.00;95454.38;5108024;28;19941;-70
2023/07/25 04:52:38;;;;;;;;;;;;;;;14.86;100.00;95459.16;5108532;28;19944;-72
2023/07/25 04:55:04;;;;;;;;;;;;;;;14.82;100.00;95445.72;5108009;28;20044;-80
2023/07/25 04:57:30;;;;;;;;;;;;;;;14.81;100.00;95451.25;5107785;28;19952;-80
2023/07/25 04:59:56;;;;;;;;;;;;;;;14.82;100.00;95474.75;5107379;28;19964;-80
2023/07/25 05:02:22;;;;;;;;;;;;;;;14.81;100.00;95469.72;5107755;28;19936;-80
2023/07/25 05:04:48;;;;;;;;;;;;;;;14.82;100.00;95472.09;5106632;28;19936;-81
2023/07/25 05:07:14;;;;;;;;;;;;;;;14.82;100.00;95477.38;5108478;28;19944;-81
2023/07/25 05:09:40;;;;;;;;;;;;;;;14.84;100.00;95471.03;5108213;28;19933;-83
2023/07/25 05:12:10;;;;;;;;;;;;;;;14.78;100.00;95463.16;5107641;28;19940;-84
2023/07/25 05:14:36;;;;;;;;;;;;;;;14.76;100.00;95461.81;5107335;28;20011;-71
2023/07/25 05:17:02;;;;;;;;;;;;;;;14.74;100.00;95462.09;5107546;28;19933;-71
2023/07/25 05:19:27;;;;;;;;;;;;;;;14.71;100.00;95465.25;5106078;28;19965;-72
2023/07/25 05:21:53;;;;;;;;;;;;;;;14.72;100.00;95458.13;5108240;28;19941;-71
2023/07/25 05:24:19;;;;;;;;;;;;;;;14.73;100.00;95455.22;5089892;28;19948;-71
2023/07/25 05:26:45;;;;;;;;;;;;;;;14.76;100.00;95459.97;5106247;28;19953;-71
2023/07/25 05:29:11;;;;;;;;;;;;;;;14.79;100.00;95451.50;5106202;28;19930;-83
2023/07/25 05:31:37;;;;;;;;;;;;;;;14.82;100.00;95456.28;5107273;28;19935;-86
2023/07/25 05:34:02;;;;;;;;;;;;;;;14.86;100.00;95453.09;5105983;28;19954;-85
2023/07/25 05:36:28;;;;;;;;;;;;;;;14.88;100.00;95456.25;5107146;28;19939;-86
2023/07/25 05:38:54;;;;;;;;;;;;;;;14.80;100.00;95452.31;5106078;28;19940;-85
2023/07/25 05:41:20;;;;;;;;;;;;;;;14.69;100.00;95433.06;5106922;28;19963;-85
2023/07/25 05:43:46;;;;;;;;;;;;;;;14.70;100.00;95447.84;5107183;28;19940;-84
2023/07/25 05:46:13;;;;;;;;;;;;;;;14.72;100.00;95437.81;5106985;28;20003;-71
2023/07/25 05:48:39;;;;;;;;;;;;;;;14.77;100.00;95437.00;5107451;28;19935;-71
2023/07/25 05:51:05;;;;;;;;;;;;;;;14.84;100.00;95439.38;5106619;28;20304;-86
2023/07/25 05:53:31;;;;;;;;;;;;;;;14.92;100.00;95444.88;5105735;28;20004;-85
2023/07/25 05:55:57;;;;;;;;;;;;;;;14.99;100.00;95445.41;5108047;28;19950;-85
2023/07/25 05:58:23;;;;;;;;;;;;;;;15.07;100.00;95441.38;5107646;28;19940;-85
2023/07/25 06:00:49;;;;;;;;;;;;;;;15.13;100.00;95436.88;5108065;28;20147;-85
2023/07/25 06:03:15;;;;;;;;;;;;;;;15.15;100.00;95427.63;5106651;28;19934;-86
2023/07/25 06:05:41;;;;;;;;;;;;;;;15.20;100.00;95437.34;5107328;28;19934;-72
2023/07/25 06:08:07;;;;;;;;;;;;;;;15.26;100.00;95438.91;5089456;28;19948;-82
2023/07/25 06:10:37;;;;;;;;;;;;;;;15.30;100.00;95432.03;5106060;28;20106;-83
2023/07/25 06:13:04;;;;;;;;;;;;;;;15.35;100.00;95429.38;5105899;28;19940;-82
2023/07/25 06:15:33;;;;;;;;;;;;;;;15.40;100.00;95423.25;5107888;28;19946;-83
2023/07/25 06:18:08;;;;;;;;;;;;;;;15.45;100.00;95417.16;5089514;28;19971;-83
2023/07/25 06:20:34;;;;;;;;;;;;;;;15.44;100.00;95413.72;5107531;28;20126;-82
2023/07/25 06:23:01;;;;;;;;;;;;;;;15.47;100.00;95422.97;5088373;28;19980;-72
2023/07/25 06:25:27;;;;;;;;;;;;;;;15.53;100.00;95432.44;5105110;28;19943;-72
2023/07/25 06:27:53;;;;;;;;;;;;;;;15.58;100.00;95437.69;5088185;28;20151;-71
2023/07/25 06:30:19;;;;;;;;;;;;;;;15.61;100.00;95440.56;5106534;28;20230;-71
2023/07/25 06:32:45;;;;;;;;;;;;;;;15.63;100.00;95441.09;5088019;28;19945;-71
2023/07/25 06:35:11;;;;;;;;;;;;;;;15.62;100.00;95436.88;5088771;28;20247;-71
2023/07/25 06:37:37;;;;;;;;;;;;;;;15.63;100.00;95435.78;5104929;28;19982;-71
2023/07/25 06:40:04;;;;;;;;;;;;;;;15.64;100.00;95444.50;5106345;28;19960;-71
2023/07/25 06:42:30;;;;;;;;;;;;;;;15.69;100.00;95435.78;5104740;28;19941;-71
2023/07/25 06:44:56;;;;;;;;;;;;;;;15.75;100.00;95424.94;5106378;28;19954;-78
2023/07/25 06:47:22;;;;;;;;;;;;;;;15.82;100.00;95433.31;5104611;28;19942;-78
2023/07/25 06:49:48;;;;;;;;;;;;;;;15.92;100.00;95431.69;5104831;28;19991;-78
2023/07/25 06:52:14;;;;;;;;;;;;;;;15.95;100.00;95431.91;5105591;28;19941;-78
2023/07/25 06:54:40;;;;;;;;;;;;;;;15.99;100.00;95422.34;5105655;28;19940;-78
2023/07/25 06:57:06;;;;;;;;;;;;;;;16.05;100.00;95417.81;5104773;28;19999;-78
2023/07/25 06:59:32;;;;;;;;;;;;;;;16.14;100.00;95424.06;5104403;28;20187;-82
2023/07/25 07:01:58;;;;;;;;;;;;;;;16.19;100.00;95418.75;5104453;28;19932;-75
2023/07/25 07:04:24;;;;;;;;;;;;;;;16.27;100.00;95425.28;5105484;28;19942;-73
2023/07/25 07:06:50;;;;;;;;;;;;;;;16.34;100.00;95425.75;5087386;28;19946;-73
2023/07/25 07:09:16;;;;;;;;;;;;;;;16.38;100.00;95424.13;5087309;28;20188;-73
2023/07/25 07:11:41;;;;;;;;;;;;;;;16.46;100.00;95421.94;5088162;28;19945;-73
2023/07/25 07:14:07;;;;;;;;;;;;;;;16.54;100.00;95419.47;5087273;28;19938;-73
2023/07/25 07:16:33;;;;;;;;;;;;;;;16.68;100.00;95409.00;5104775;28;19933;-73
2023/07/25 07:18:59;;;;;;;;;;;;;;;16.78;100.00;95416.84;5087300;28;19971;-77
2023/07/25 07:21:25;;;;;;;;;;;;;;;17.03;100.00;95404.41;5105103;28;19968;-71
2023/07/25 07:23:51;;;;;;;;;;;;;;;17.25;100.00;95406.47;5105085;28;19943;-81
2023/07/25 07:26:17;;;;;;;;;;;;;;;17.63;100.00;95398.53;5105958;28;19998;-82
2023/07/25 07:28:43;;;;;;;;;;;;;;;17.74;100.00;95401.81;5105065;28;19965;-82
2023/07/25 07:31:09;;;;;;;;;;;;;;;17.80;100.00;95405.97;5105558;28;19944;-82
2023/07/25 07:33:35;;;;;;;;;;;;;;;17.77;100.00;95390.63;5103809;28;19959;-83
2023/07/25 07:36:01;;;;;;;;;;;;;;;17.74;100.00;95404.47;5104391;28;20222;-84
2023/07/25 07:38:27;;;;;;;;;;;;;;;17.65;100.00;95404.34;5104524;28;19951;-85
2023/07/25 07:40:53;;;;;;;;;;;;;;;17.61;100.00;95405.97;5104570;28;19952;-79
2023/07/25 07:43:19;;;;;;;;;;;;;;;17.63;100.00;95401.97;5103734;28;19945;-79
2023/07/25 07:45:45;;;;;;;;;;;;;;;17.71;100.00;95402.41;5105249;28;19939;-79
2023/07/25 07:48:11;;;;;;;;;;;;;;;17.96;100.00;95401.25;5103894;28;20005;-79
2023/07/25 07:50:37;;;;;;;;;;;;;;;18.19;100.00;95396.88;5105463;28;19934;-78
2023/07/25 07:53:03;;;;;;;;;;;;;;;18.28;100.00;95403.06;5103471;28;19942;-78
2023/07/25 07:55:29;;;;;;;;;;;;;;;18.29;100.00;95407.31;5104616;28;20200;-72
2023/07/25 07:57:55;;;;;;;;;;;;;;;18.26;100.00;95400.72;5103434;28;19957;-71
2023/07/25 08:00:21;;;;;;;;;;;;;;;18.26;100.00;95398.06;5104064;28;20068;-72
2023/07/25 08:02:47;;;;;;;;;;;;;;;18.29;100.00;95406.50;5082647;28;19945;-72
2023/07/25 08:05:13;;;;;;;;;;;;;;;18.30;100.00;95394.84;5083025;28;19930;-73
2023/07/25 08:07:39;;;;;;;;;;;;;;;18.31;100.00;95407.00;5049188;28;19944;-72
2023/07/25 08:10:06;;;;;;;;;;;;;;;18.32;100.00;95411.25;5049056;28;19936;-72
2023/07/25 08:12:32;;;;;;;;;;;;;;;18.19;100.00;95399.53;5065822;28;19941;-73
2023/07/25 08:14:58;;;;;;;;;;;;;;;18.09;100.00;95411.09;5066118;28;19936;-85
2023/07/25 08:17:24;;;;;;;;;;;;;;;18.01;100.00;95423.16;5083532;28;19935;-72
2023/07/25 08:19:50;;;;;;;;;;;;;;;17.96;100.00;95420.59;5082042;28;19978;-72
2023/07/25 08:22:16;;;;;;;;;;;;;;;17.89;100.00;95417.53;5049670;28;19956;-72
2023/07/25 08:24:42;;;;;;;;;;;;;;;17.79;100.00;95415.78;5065679;28;20226;-71
2023/07/25 08:27:08;;;;;;;;;;;;;;;17.68;100.00;95419.69;5066169;28;19940;-71
2023/07/25 08:29:40;;;;;;;;;;;;;;;17.58;100.00;95427.78;5082833;28;19959;-72
2023/07/25 08:32:07;;;;;;;;;;;;;;;17.43;100.00;95421.59;5082293;28;19941;-79
2023/07/25 08:34:33;;;;;;;;;;;;;;;17.31;100.00;95431.06;5100195;28;19943;-76
2023/07/25 08:36:59;;;;;;;;;;;;;;;17.18;100.00;95419.31;5105106;28;20212;-70
2023/07/25 08:39:24;;;;;;;;;;;;;;;17.06;100.00;95419.72;5104990;28;19949;-71
2023/07/25 08:41:53;;;;;;;;;;;;;;;16.97;100.00;95416.13;5103127;28;19964;-71
2023/07/25 08:44:20;;;;;;;;;;;;;;;16.86;100.00;95418.06;5104219;28;19936;-71
2023/07/25 08:46:49;;;;;;;;;;;;;;;16.76;100.00;95418.19;5104721;28;20117;-70
2023/07/25 08:49:16;;;;;;;;;;;;;;;16.68;100.00;95411.66;5103062;28;19938;-71
2023/07/25 08:51:42;;;;;;;;;;;;;;;16.65;100.00;95412.19;5104958;28;19937;-84
2023/07/25 08:54:11;;;;;;;;;;;;;;;16.67;100.00;95412.69;5104140;28;19943;-80
2023/07/25 08:56:41;;;;;;;;;;;;;;;16.77;100.00;95411.81;5103300;28;19956;-81
2023/07/25 08:59:07;;;;;;;;;;;;;;;17.00;100.00;95418.19;5103256;28;20271;-81
2023/07/25 09:01:33;;;;;;;;;;;;;;;17.37;100.00;95414.81;5103567;28;19957;-81
2023/07/25 09:04:00;;;;;;;;;;;;;;;17.75;100.00;95396.22;5104023;28;19945;-83
2023/07/25 09:06:26;;;;;;;;;;;;;;;18.01;100.00;95401.16;5104505;28;19940;-84
2023/07/25 09:08:53;;;;;;;;;;;;;;;18.10;100.00;95399.41;5104772;28;19942;-78
2023/07/25 09:11:22;;;;;;;;;;;;;;;18.11;100.00;95408.94;5103108;28;20237;-73
2023/07/25 09:13:48;;;;;;;;;;;;;;;18.12;100.00;95391.97;5102722;28;19938;-71
2023/07/25 09:16:14;;;;;;;;;;;;;;;18.16;100.00;95397.44;5103227;28;19930;-72
2023/07/25 09:18:40;;;;;;;;;;;;;;;18.20;100.00;95395.78;5103737;28;20153;-71
2023/07/25 09:21:06;;;;;;;;;;;;;;;18.34;100.00;95409.09;5107421;28;19954;-71
2023/07/25 09:23:32;;;;;;;;;;;;;;;18.47;100.00;95405.66;5089399;28;19938;-71
2023/07/25 09:26:11;;;;;;;;;;;;;;;18.51;100.00;95401.34;5106250;28;20108;-71
2023/07/25 09:28:48;;;;;;;;;;;;;;;18.64;100.00;95407.75;5108151;28;19941;-71
2023/07/25 09:31:14;;;;;;;;;;;;;;;18.76;100.00;95402.72;5089285;28;19942;-72
2023/07/25 09:33:40;;;;;;;;;;;;;;;18.87;96.56;95387.41;5106997;28;19980;-72
2023/07/25 09:36:06;;;;;;;;;;;;;;;19.00;99.97;95399.09;5108022;28;19941;-71
2023/07/25 09:38:35;;;;;;;;;;;;;;;19.11;94.18;95375.75;5089128;28;19943;-71
2023/07/25 09:41:01;;;;;;;;;;;;;;;19.21;98.54;95400.28;5107816;28;19963;-71
2023/07/25 09:43:27;;;;;;;;;;;;;;;19.13;93.63;95384.22;5106763;28;19951;-71
2023/07/25 09:45:54;;;;;;;;;;;;;;;19.13;94.45;95397.50;5107157;28;19933;-71
2023/07/25 09:48:20;;;;;;;;;;;;;;;19.08;90.65;95371.84;5106663;28;19946;-77
2023/07/25 09:50:47;;;;;;;;;;;;;;;19.13;92.02;95381.56;5107787;28;19934;-71
2023/07/25 09:53:14;;;;;;;;;;;;;;;19.06;88.82;95369.47;5105828;28;19941;-71
2023/07/25 09:55:40;;;;;;;;;;;;;;;19.05;91.01;95383.84;5106787;28;19941;-72
2023/07/25 09:58:06;;;;;;;;;;;;;;;19.19;92.04;95383.84;5106879;28;20116;-71
2023/07/25 10:00:32;;;;;;;;;;;;;;;19.39;90.41;95374.63;5106721;28;19958;-71
2023/07/25 10:02:58;;;;;;;;;;;;;;;19.50;88.29;95366.41;5107184;28;19942;-71
2023/07/25 10:05:28;;;;;;;;;;;;;;;19.51;90.17;95368.78;5105611;28;20142;-78
2023/07/25 10:07:59;;;;;;;;;;;;;;;19.45;88.70;95365.44;5105620;28;19937;-71
2023/07/25 10:10:25;;;;;;;;;;;;;;;19.44;83.50;95339.16;5106838;28;19945;-71
2023/07/25 10:12:52;;;;;;;;;;;;;;;19.34;82.80;95329.56;5105996;28;19950;-71
2023/07/25 10:15:17;;;;;;;;;;;;;;;19.26;86.19;95370.91;5106077;28;19934;-72
2023/07/25 10:17:44;;;;;;;;;;;;;;;19.23;87.36;95368.06;5105753;28;19945;-72
2023/07/25 10:20:18;;;;;;;;;;;;;;;19.19;87.28;95369.75;5105803;28;20215;-71
2023/07/25 10:22:44;;;;;;;;;;;;;;;19.11;89.37;95391.69;5089061;28;19943;-71
2023/07/25 10:25:16;;;;;;;;;;;;;;;18.95;90.55;95401.88;5105298;28;19941;-71
2023/07/25 10:27:42;;;;;;;;;;;;;;;18.82;92.61;95403.47;5089051;28;19969;-71
2023/07/25 10:30:22;;;;;;;;;;;;;;;18.66;93.96;95411.66;5106702;28;19946;-72
2023/07/25 10:32:50;;;;;;;;;;;;;;;18.46;94.45;95410.19;5106541;28;19936;-71
2023/07/25 10:35:16;;;;;;;;;;;;;;;18.35;95.19;95422.09;5105703;28;19942;-71
2023/07/25 10:37:43;;;;;;;;;;;;;;;18.28;97.53;95424.31;5105705;28;19976;-71
2023/07/25 10:40:22;;;;;;;;;;;;;;;18.26;99.71;95423.81;5105955;28;19939;-70
2023/07/25 10:42:57;;;;;;;;;;;;;;;18.28;100.00;95415.56;5105981;28;19944;-92
2023/07/25 10:45:29;;;;;;;;;;;;;;;18.29;100.00;95415.28;5107060;28;19935;-80
2023/07/25 10:47:59;;;;;;;;;;;;;;;18.29;100.00;95407.31;5105890;28;19935;-80
2023/07/25 10:50:26;;;;;;;;;;;;;;;18.36;100.00;95414.91;5106314;28;19937;-80
2023/07/25 10:52:52;;;;;;;;;;;;;;;18.41;100.00;95404.19;5105657;28;19941;-80
2023/07/25 10:55:18;;;;;;;;;;;;;;;18.46;100.00;95404.88;5105700;28;19933;-81
2023/07/25 10:58:03;;;;;;;;;;;;;;;18.61;99.94;95395.84;5104564;28;19958;-82
2023/07/25 11:00:35;;;;;;;;;;;;;;;18.90;100.00;95394.00;5106138;28;19958;-78
2023/07/25 11:03:21;;;;;;;;;;;;;;;19.21;94.81;95373.69;5104407;28;20002;-78
2023/07/25 11:05:47;;;;;;;;;;;;;;;19.47;92.39;95365.16;5090562;28;19942;-79
2023/07/25 11:08:13;;;;;;;;;;;;;;;19.59;87.55;95357.44;5106466;28;20257;-79
2023/07/25 11:10:40;;;;;;;;;;;;;;;19.48;84.06;95342.78;5106265;28;19929;-79
2023/07/25 11:13:07;;;;;;;;;;;;;;;19.47;87.56;95359.81;5106052;28;19945;-78
2023/07/25 11:15:33;;;;;;;;;;;;;;;19.40;83.07;95346.97;5105269;28;19957;-79
2023/07/25 11:18:04;;;;;;;;;;;;;;;19.33;85.58;95356.44;5105175;28;20179;-90
2023/07/25 11:20:30;;;;;;;;;;;;;;;19.33;87.12;95367.06;5105173;28;20128;-71
2023/07/25 11:22:56;;;;;;;;;;;;;;;19.35;84.98;95360.34;5103964;28;19988;-77
2023/07/25 11:25:22;;;;;;;;;;;;;;;19.36;84.50;95367.25;5105851;28;20206;-78
2023/07/25 11:27:48;;;;;;;;;;;;;;;19.39;84.80;95365.84;5104079;28;20245;-78
2023/07/25 11:30:15;;;;;;;;;;;;;;;19.37;80.83;95344.09;5104040;28;19936;-78
2023/07/25 11:32:45;;;;;;;;;;;;;;;19.23;79.48;95333.50;5104847;28;19932;-78
2023/07/25 11:35:11;;;;;;;;;;;;;;;19.37;80.35;95339.56;5104865;28;19930;-79
2023/07/25 11:37:37;;;;;;;;;;;;;;;19.67;77.92;95316.81;5105270;28;20276;-71
2023/07/25 11:40:11;;;;;;;;;;;;;;;20.09;79.07;95321.91;5104611;28;19935;-79
2023/07/25 11:42:42;;;;;;;;;;;;;;;20.51;77.55;95297.63;5104426;28;19947;-79
2023/07/25 11:45:09;;;;;;;;;;;;;;;20.82;72.07;95252.28;5104895;28;19965;-78
2023/07/25 11:47:35;;;;;;;;;;;;;;;21.09;77.00;95291.94;5103485;28;20224;-79
2023/07/25 11:50:01;;;;;;;;;;;;;;;21.18;68.80;95232.53;5104178;28;19974;-79
2023/07/25 11:52:27;;;;;;;;;;;;;;;21.24;69.11;95239.25;5104980;28;19938;-80
2023/07/25 11:54:53;;;;;;;;;;;;;;;21.35;71.21;95279.72;5104517;28;19974;-71
2023/07/25 11:57:19;;;;;;;;;;;;;;;21.40;71.07;95277.69;5104474;28;19955;-83
2023/07/25 11:59:45;;;;;;;;;;;;;;;21.25;70.02;95275.47;5103215;28;19941;-72
2023/07/25 12:02:11;;;;;;;;;;;;;;;21.26;72.56;95288.50;5104532;28;20130;-72
2023/07/25 12:04:44;;;;;;;;;;;;;;;21.48;72.22;95290.25;5086215;28;19946;-71
2023/07/25 12:07:10;;;;;;;;;;;;;;;21.53;73.43;95288.53;5086020;28;19951;-73
2023/07/25 12:09:36;;;;;;;;;;;;;;;21.54;68.77;95256.19;5102953;28;19940;-72
2023/07/25 12:12:03;;;;;;;;;;;;;;;21.43;68.51;95255.72;5104836;28;20227;-71
2023/07/25 12:14:30;;;;;;;;;;;;;;;21.32;68.42;95275.03;5103974;28;19956;-86
2023/07/25 12:17:00;;;;;;;;;;;;;;;21.24;68.24;95265.94;5086083;28;20219;-81
2023/07/25 12:19:30;;;;;;;;;;;;;;;21.01;67.16;95247.41;5103963;28;19961;-80
2023/07/25 12:22:03;;;;;;;;;;;;;;;20.72;67.68;95261.34;5104343;28;19962;-81
2023/07/25 12:24:38;;;;;;;;;;;;;;;20.53;68.58;95276.81;5104508;28;19937;-79
2023/07/25 12:27:14;;;;;;;;;;;;;;;20.64;69.16;95275.44;5104950;28;19946;-79
2023/07/25 12:29:39;;;;;;;;;;;;;;;20.66;70.45;95286.56;5104346;28;19945;-79
2023/07/25 12:32:05;;;;;;;;;;;;;;;20.62;70.51;95282.94;5104270;28;19938;-72
2023/07/25 12:34:31;;;;;;;;;;;;;;;20.63;71.54;95300.50;5104275;28;20003;-70